createdAt,value
2022-12-06T00:01:44.668Z,24.40
2022-12-06T00:04:15.717Z,25.70
2022-12-06T00:06:48.118Z,24.27
2022-12-06T00:09:19.714Z,24.50
2022-12-06T00:11:48.713Z,24.10
2022-12-06T00:14:17.981Z,24.40
2022-12-06T00:16:48.462Z,23.03
2022-12-06T00:19:19.282Z,25.80
2022-12-06T00:21:48.773Z,25.73
2022-12-06T00:24:19.544Z,24.57
2022-12-06T00:26:49.912Z,26.10
2022-12-06T00:29:20.934Z,24.87
2022-12-06T00:31:51.700Z,25.40
2022-12-06T00:34:20.728Z,25.33
2022-12-06T00:36:50.099Z,27.87
2022-12-06T00:39:20.382Z,25.60
2022-12-06T00:41:49.285Z,26.20
2022-12-06T00:44:18.173Z,27.03
2022-12-06T00:46:47.083Z,27.87
2022-12-06T00:49:17.521Z,26.60
2022-12-06T00:51:46.454Z,26.80
2022-12-06T00:54:16.769Z,26.83
2022-12-06T00:56:45.714Z,27.97
2022-12-06T00:59:14.589Z,26.17
2022-12-06T01:01:43.588Z,26.50
2022-12-06T01:04:12.814Z,25.77
2022-12-06T01:06:43.178Z,27.20
2022-12-06T01:09:13.565Z,27.03
2022-12-06T01:11:42.443Z,27.13
2022-12-06T01:14:11.330Z,26.30
2022-12-06T01:16:40.366Z,27.47
2022-12-06T01:19:09.353Z,27.53
2022-12-06T01:21:38.256Z,26.87
2022-12-06T01:24:09.260Z,26.50
2022-12-06T01:26:38.190Z,27.73
2022-12-06T01:29:07.132Z,26.80
2022-12-06T01:31:39.029Z,29.70
2022-12-06T01:34:09.136Z,27.77
2022-12-06T01:36:38.037Z,28.17
2022-12-06T01:39:10.894Z,27.70
2022-12-06T01:41:40.650Z,29.10
2022-12-06T01:44:25.022Z,28.37
2022-12-06T01:46:53.919Z,29.60
2022-12-06T01:49:28.219Z,27.93
2022-12-06T01:52:06.898Z,28.33
2022-12-06T01:54:37.773Z,27.80
2022-12-06T01:57:09.989Z,28.37
2022-12-06T01:59:39.233Z,27.27
2022-12-06T02:02:09.458Z,28.10
2022-12-06T02:04:39.074Z,27.57
2022-12-06T02:07:08.454Z,29.33
2022-12-06T02:09:39.524Z,29.30
2022-12-06T02:12:13.517Z,27.97
2022-12-06T02:14:44.014Z,28.17
2022-12-06T02:17:27.919Z,28.33
2022-12-06T02:20:15.796Z,25.60
2022-12-06T02:23:23.620Z,27.17
2022-12-06T02:26:18.494Z,28.10
2022-12-06T02:29:23.895Z,27.57
2022-12-06T02:31:59.300Z,26.63
2022-12-06T02:34:35.131Z,27.57
2022-12-06T02:37:12.344Z,27.43
2022-12-06T02:39:48.305Z,26.67
2022-12-06T02:42:20.261Z,25.80
2022-12-06T02:44:54.476Z,26.23
2022-12-06T02:47:28.404Z,27.33
2022-12-06T02:49:58.831Z,27.67
2022-12-06T02:52:29.800Z,26.93
2022-12-06T02:55:01.462Z,27.47
2022-12-06T02:57:40.990Z,26.23
2022-12-06T03:00:45.277Z,26.43
2022-12-06T03:03:42.294Z,25.30
2022-12-06T03:06:48.906Z,26.23
2022-12-06T03:09:30.709Z,26.37
2022-12-06T03:12:07.303Z,27.17
2022-12-06T03:14:44.465Z,27.43
2022-12-06T03:17:20.054Z,26.57
2022-12-06T03:19:55.726Z,26.13
2022-12-06T03:22:29.542Z,27.43
2022-12-06T03:25:00.405Z,28.07
2022-12-06T03:27:32.005Z,25.83
2022-12-06T03:30:04.153Z,27.47
2022-12-06T03:32:34.915Z,26.23
2022-12-06T03:35:09.683Z,26.67
2022-12-06T03:38:03.420Z,24.73
2022-12-06T03:40:35.335Z,27.20
2022-12-06T03:43:04.773Z,26.57
2022-12-06T03:45:38.934Z,25.70
2022-12-06T03:48:14.108Z,25.90
2022-12-06T03:50:55.447Z,26.17
2022-12-06T03:53:27.265Z,25.43
2022-12-06T03:55:56.229Z,25.60
2022-12-06T03:58:25.189Z,24.57
2022-12-06T04:00:54.120Z,27.13
2022-12-06T04:03:23.129Z,26.13
2022-12-06T04:05:53.471Z,25.20
2022-12-06T04:08:22.319Z,24.97
2022-12-06T04:10:51.256Z,25.50
2022-12-06T04:13:20.142Z,25.63
2022-12-06T04:15:49.494Z,25.00
2022-12-06T04:18:18.787Z,25.23
2022-12-06T04:21:08.146Z,25.27
2022-12-06T04:23:40.408Z,25.27
2022-12-06T04:26:11.504Z,25.33
2022-12-06T04:28:58.282Z,25.47
2022-12-06T04:31:45.300Z,24.43
2022-12-06T04:34:32.005Z,25.40
2022-12-06T04:37:18.674Z,25.17
2022-12-06T04:39:49.158Z,25.53
2022-12-06T04:42:35.854Z,25.90
2022-12-06T04:45:05.019Z,26.57
2022-12-06T04:47:33.951Z,26.37
2022-12-06T04:50:03.100Z,26.10
2022-12-06T04:52:35.631Z,25.67
2022-12-06T04:55:07.234Z,27.30
2022-12-06T04:57:36.131Z,27.50
2022-12-06T05:00:07.838Z,25.87
2022-12-06T05:02:36.697Z,27.20
2022-12-06T05:05:06.184Z,25.33
2022-12-06T05:07:35.142Z,26.57
2022-12-06T05:10:05.886Z,26.37
2022-12-06T05:12:34.794Z,32.40
2022-12-06T05:15:03.689Z,27.90
2022-12-06T05:17:32.601Z,27.37
2022-12-06T05:20:01.700Z,23.73
2022-12-06T05:22:34.494Z,24.90
2022-12-06T05:25:03.336Z,25.03
2022-12-06T05:27:36.097Z,23.93
2022-12-06T05:30:06.518Z,25.10
2022-12-06T05:32:35.395Z,23.30
2022-12-06T05:35:04.247Z,22.07
2022-12-06T05:37:33.120Z,22.60
2022-12-06T05:40:02.563Z,24.23
2022-12-06T05:42:33.194Z,22.37
2022-12-06T05:45:02.051Z,22.77
2022-12-06T05:47:30.898Z,22.70
2022-12-06T05:50:00.243Z,23.00
2022-12-06T05:52:29.508Z,23.03
2022-12-06T05:54:58.414Z,21.70
2022-12-06T05:57:27.279Z,20.63
2022-12-06T05:59:57.819Z,21.80
2022-12-06T06:02:27.272Z,21.57
2022-12-06T06:04:56.345Z,21.07
2022-12-06T06:07:25.343Z,21.73
2022-12-06T06:09:54.325Z,21.53
2022-12-06T06:12:23.506Z,21.40
2022-12-06T06:14:53.373Z,22.67
2022-12-06T06:17:24.446Z,21.83
2022-12-06T06:19:53.640Z,22.43
2022-12-06T06:22:23.338Z,22.53
2022-12-06T06:24:52.739Z,22.37
2022-12-06T06:27:21.634Z,23.10
2022-12-06T06:29:50.598Z,23.33
2022-12-06T06:32:19.496Z,23.00
2022-12-06T06:34:49.933Z,23.40
2022-12-06T06:37:19.010Z,22.57
2022-12-06T06:39:47.905Z,22.23
2022-12-06T06:42:17.816Z,22.10
2022-12-06T06:44:46.885Z,22.67
2022-12-06T06:47:15.925Z,20.77
2022-12-06T06:49:45.020Z,22.70
2022-12-06T06:52:16.348Z,22.13
2022-12-06T06:54:45.305Z,21.13
2022-12-06T06:57:17.898Z,21.37
2022-12-06T06:59:47.403Z,21.77
2022-12-06T07:02:17.548Z,21.33
2022-12-06T07:04:46.636Z,21.07
2022-12-06T07:07:20.983Z,21.97
2022-12-06T07:09:50.479Z,20.67
2022-12-06T07:12:19.719Z,21.50
2022-12-06T07:14:48.584Z,23.30
2022-12-06T07:17:17.479Z,23.47
2022-12-06T07:19:46.390Z,21.60
2022-12-06T07:22:16.838Z,19.63
2022-12-06T07:24:52.082Z,20.73
2022-12-06T07:27:21.489Z,21.00
2022-12-06T07:29:50.532Z,21.43
2022-12-06T07:32:19.442Z,21.17
2022-12-06T07:34:48.324Z,21.73
2022-12-06T07:37:20.747Z,21.90
2022-12-06T07:39:49.749Z,23.03
2022-12-06T07:42:36.282Z,22.70
2022-12-06T07:45:07.554Z,21.87
2022-12-06T07:47:38.348Z,22.47
2022-12-06T07:50:15.989Z,23.40
2022-12-06T07:52:49.913Z,23.37
2022-12-06T07:55:19.973Z,22.50
2022-12-06T07:57:49.058Z,23.77
2022-12-06T08:00:18.829Z,23.87
2022-12-06T08:02:47.784Z,23.57
2022-12-06T08:05:17.081Z,25.67
2022-12-06T08:07:47.871Z,27.27
2022-12-06T08:10:16.943Z,26.33
2022-12-06T08:12:46.034Z,26.20
2022-12-06T08:15:15.123Z,27.23
2022-12-06T08:17:44.248Z,26.83
2022-12-06T08:20:13.855Z,27.80
2022-12-06T08:22:42.786Z,29.20
2022-12-06T08:25:13.293Z,28.33
2022-12-06T08:27:42.193Z,28.33
2022-12-06T08:30:11.402Z,29.23
2022-12-06T08:32:40.313Z,28.03
2022-12-06T08:35:09.927Z,28.40
2022-12-06T08:37:38.823Z,28.87
2022-12-06T08:40:09.261Z,29.27
2022-12-06T08:42:39.598Z,29.73
2022-12-06T08:45:09.493Z,29.00
2022-12-06T08:47:38.410Z,29.40
2022-12-06T08:50:08.649Z,29.17
2022-12-06T08:52:37.512Z,27.10
2022-12-06T08:55:07.222Z,29.80
2022-12-06T08:57:36.269Z,28.33
2022-12-06T09:00:08.174Z,29.43
2022-12-06T09:02:37.254Z,28.27
2022-12-06T09:05:06.737Z,29.57
2022-12-06T09:07:35.881Z,29.47
2022-12-06T09:10:05.724Z,28.80
2022-12-06T09:12:34.799Z,29.27
2022-12-06T09:15:04.031Z,29.90
2022-12-06T09:17:34.620Z,30.90
2022-12-06T09:20:06.059Z,29.60
2022-12-06T09:22:35.558Z,29.00
2022-12-06T09:25:04.803Z,29.67
2022-12-06T09:27:33.772Z,28.93
2022-12-06T09:30:03.075Z,28.93
2022-12-06T09:32:33.834Z,28.50
2022-12-06T09:35:02.911Z,28.83
2022-12-06T09:37:33.414Z,29.57
2022-12-06T09:40:11.982Z,27.87
2022-12-06T09:42:56.879Z,28.63
2022-12-06T09:45:52.067Z,28.53
2022-12-06T09:48:53.475Z,28.47
2022-12-06T09:51:34.373Z,28.60
2022-12-06T09:54:21.470Z,29.63
2022-12-06T09:56:56.243Z,27.90
2022-12-06T09:59:34.344Z,28.33
2022-12-06T10:02:17.353Z,28.80
2022-12-06T10:05:03.312Z,28.73
2022-12-06T10:07:41.813Z,28.23
2022-12-06T10:10:19.939Z,28.10
2022-12-06T10:13:03.120Z,28.73
2022-12-06T10:15:45.608Z,28.43
2022-12-06T10:18:50.295Z,28.17
2022-12-06T10:21:29.372Z,28.10
2022-12-06T10:24:10.493Z,29.50
2022-12-06T10:26:49.047Z,28.87
2022-12-06T10:29:29.065Z,28.07
2022-12-06T10:32:00.808Z,28.43
2022-12-06T10:34:47.424Z,28.00
2022-12-06T10:37:31.504Z,29.80
2022-12-06T10:40:13.782Z,28.77
2022-12-06T10:42:48.168Z,29.10
2022-12-06T10:45:41.889Z,30.90
2022-12-06T10:48:17.308Z,29.70
2022-12-06T10:50:49.122Z,30.90
2022-12-06T10:53:21.169Z,31.13
2022-12-06T10:55:56.352Z,31.87
2022-12-06T10:58:32.509Z,30.93
2022-12-06T11:01:04.518Z,31.00
2022-12-06T11:03:39.404Z,31.37
2022-12-06T11:06:13.453Z,31.63
2022-12-06T11:08:47.169Z,30.00
2022-12-06T11:11:21.799Z,32.23
2022-12-06T11:13:55.153Z,33.83
2022-12-06T11:16:26.592Z,32.60
2022-12-06T11:19:02.072Z,34.43
2022-12-06T11:21:37.187Z,36.53
2022-12-06T11:24:14.654Z,33.33
2022-12-06T11:26:49.757Z,33.80
2022-12-06T11:29:19.285Z,32.77
2022-12-06T11:31:51.287Z,29.90
2022-12-06T11:34:24.356Z,31.60
2022-12-06T11:37:00.218Z,30.33
2022-12-06T11:39:30.402Z,31.27
2022-12-06T11:42:04.426Z,32.03
2022-12-06T11:44:44.865Z,31.33
2022-12-06T11:47:19.445Z,30.67
2022-12-06T11:49:50.045Z,30.90
2022-12-06T11:52:23.897Z,31.73
2022-12-06T11:54:58.126Z,31.87
2022-12-06T11:57:33.323Z,29.80
2022-12-06T12:00:12.435Z,30.47
2022-12-06T12:02:43.075Z,30.90
2022-12-06T12:05:15.395Z,31.20
2022-12-06T12:07:48.435Z,32.33
2022-12-06T12:10:34.260Z,32.70
2022-12-06T12:13:38.116Z,33.23
2022-12-06T12:16:16.713Z,37.47
2022-12-06T12:18:53.801Z,35.27
2022-12-06T12:21:36.687Z,35.03
2022-12-06T12:24:07.380Z,34.03
2022-12-06T12:26:42.444Z,35.70
2022-12-06T12:29:20.138Z,33.80
2022-12-06T12:31:55.844Z,31.93
2022-12-06T12:34:27.473Z,32.50
2022-12-06T12:36:59.635Z,34.57
2022-12-06T12:39:34.812Z,33.73
2022-12-06T12:42:04.586Z,33.10
2022-12-06T12:44:39.584Z,33.43
2022-12-06T12:47:20.083Z,33.70
2022-12-06T12:50:03.139Z,33.80
2022-12-06T12:52:37.875Z,32.30
2022-12-06T12:55:17.945Z,35.07
2022-12-06T12:57:48.979Z,35.40
2022-12-06T13:00:22.062Z,35.03
2022-12-06T13:02:54.925Z,35.13
2022-12-06T13:05:33.211Z,37.43
2022-12-06T13:08:13.014Z,33.63
2022-12-06T13:10:45.995Z,35.03
2022-12-06T13:13:18.484Z,34.10
2022-12-06T13:15:50.130Z,35.40
2022-12-06T13:18:22.984Z,35.60
2022-12-06T13:20:54.672Z,36.10
2022-12-06T13:23:26.619Z,37.03
2022-12-06T13:26:02.749Z,36.43
2022-12-06T13:28:35.880Z,37.23
2022-12-06T13:31:13.083Z,37.67
2022-12-06T13:33:49.776Z,37.47
2022-12-06T13:36:20.892Z,36.30
2022-12-06T13:38:50.049Z,36.87
2022-12-06T13:42:12.900Z,36.43
2022-12-06T13:44:43.216Z,38.47
2022-12-06T13:47:50.949Z,38.23
2022-12-06T13:50:52.183Z,36.47
2022-12-06T13:53:22.535Z,37.00
2022-12-06T13:55:59.781Z,39.17
2022-12-06T13:58:43.990Z,36.03
2022-12-06T14:01:40.067Z,38.73
2022-12-06T14:07:03.096Z,33.97
2022-12-06T14:09:42.352Z,33.17
2022-12-06T14:12:18.996Z,32.40
2022-12-06T14:14:58.305Z,34.13
2022-12-06T14:18:00.276Z,34.20
2022-12-06T14:20:25.105Z,32.67
2022-12-06T14:22:54.159Z,35.00
2022-12-06T14:25:25.613Z,33.23
2022-12-06T14:28:04.099Z,32.63
2022-12-06T14:30:33.770Z,32.10
2022-12-06T14:33:02.963Z,33.10
2022-12-06T14:35:37.053Z,33.37
2022-12-06T14:38:22.509Z,32.97
2022-12-06T14:41:09.903Z,33.77
2022-12-06T14:43:39.454Z,31.43
2022-12-06T14:46:13.052Z,39.90
2022-12-06T14:49:00.067Z,34.77
2022-12-06T14:51:38.745Z,33.10
2022-12-06T14:54:20.969Z,38.07
2022-12-06T14:56:50.380Z,35.90
2022-12-06T14:59:38.944Z,34.03
2022-12-06T15:02:23.987Z,34.17
2022-12-06T15:04:53.308Z,34.77
2022-12-06T15:07:41.000Z,33.23
2022-12-06T15:10:20.181Z,33.90
2022-12-06T15:12:55.620Z,32.57
2022-12-06T15:15:39.514Z,33.10
2022-12-06T15:18:19.890Z,33.23
2022-12-06T15:20:50.271Z,32.83
2022-12-06T15:23:38.484Z,34.70
2022-12-06T15:26:09.560Z,32.90
2022-12-06T15:28:38.892Z,33.07
2022-12-06T15:31:13.223Z,34.27
2022-12-06T15:33:42.340Z,32.80
2022-12-06T15:36:16.644Z,33.37
2022-12-06T15:38:47.296Z,33.10
2022-12-06T15:41:19.093Z,33.57
2022-12-06T15:43:48.811Z,30.87
2022-12-06T15:46:20.377Z,33.40
2022-12-06T15:48:49.766Z,33.07
2022-12-06T15:51:21.233Z,32.63
2022-12-06T15:53:52.164Z,31.50
2022-12-06T15:56:23.233Z,31.47
2022-12-06T15:58:52.837Z,31.67
2022-12-06T16:01:24.356Z,30.40
2022-12-06T16:03:55.456Z,30.20
2022-12-06T16:06:27.628Z,29.93
2022-12-06T16:08:58.416Z,30.27
2022-12-06T16:11:28.392Z,30.60
2022-12-06T16:13:57.556Z,33.63
2022-12-06T16:16:26.910Z,30.53
2022-12-06T16:18:56.511Z,30.63
2022-12-06T16:21:27.899Z,32.20
2022-12-06T16:24:17.190Z,33.60
2022-12-06T16:26:46.841Z,32.87
2022-12-06T16:29:19.314Z,30.73
2022-12-06T16:31:49.061Z,32.87
2022-12-06T16:34:19.179Z,30.07
2022-12-06T16:37:02.899Z,27.40
2022-12-06T16:39:35.798Z,29.37
2022-12-06T16:42:07.492Z,28.43
2022-12-06T16:44:58.243Z,28.47
2022-12-06T16:49:56.366Z,27.33
2022-12-06T16:52:25.983Z,28.03
2022-12-06T16:54:57.643Z,27.03
2022-12-06T16:57:28.294Z,26.60
2022-12-06T16:59:57.869Z,26.87
2022-12-06T17:02:29.355Z,25.07
2022-12-06T17:05:01.841Z,26.30
2022-12-06T17:07:33.404Z,25.00
2022-12-06T17:10:05.194Z,25.53
2022-12-06T17:12:35.675Z,25.30
2022-12-06T17:15:05.887Z,25.33
2022-12-06T17:17:36.594Z,26.20
2022-12-06T17:20:08.906Z,25.30
2022-12-06T17:22:40.878Z,25.43
2022-12-06T17:25:13.568Z,25.53
2022-12-06T17:27:43.879Z,26.03
2022-12-06T17:30:18.396Z,27.67
2022-12-06T17:32:52.120Z,25.97
2022-12-06T17:35:35.140Z,26.03
2022-12-06T17:38:06.004Z,27.60
2022-12-06T17:40:38.166Z,28.90
2022-12-06T17:43:07.141Z,29.73
2022-12-06T17:45:37.917Z,30.10
2022-12-06T17:48:08.256Z,28.13
2022-12-06T17:50:38.753Z,28.87
2022-12-06T17:53:08.780Z,30.90
2022-12-06T17:55:39.843Z,27.43
2022-12-06T17:58:09.273Z,30.20
2022-12-06T18:00:39.248Z,27.90
2022-12-06T18:03:08.985Z,28.37
2022-12-06T18:05:42.768Z,28.33
2022-12-06T18:08:13.064Z,26.73
2022-12-06T18:10:44.738Z,27.30
2022-12-06T18:13:14.535Z,27.87
2022-12-06T18:15:44.245Z,27.43
2022-12-06T18:18:16.448Z,27.40
2022-12-06T18:20:46.467Z,25.40
2022-12-06T18:23:21.183Z,25.57
2022-12-06T18:25:52.994Z,25.87
2022-12-06T18:28:23.756Z,27.30
2022-12-06T18:31:02.244Z,28.43
2022-12-06T18:33:34.024Z,25.67
2022-12-06T18:36:04.899Z,27.87
2022-12-06T18:38:35.734Z,27.30
2022-12-06T18:41:09.624Z,26.43
2022-12-06T18:43:40.343Z,27.20
2022-12-06T18:46:13.780Z,26.53
2022-12-06T18:48:46.913Z,26.50
2022-12-06T18:51:18.950Z,24.93
2022-12-06T18:53:51.714Z,24.87
2022-12-06T18:56:24.970Z,25.03
2022-12-06T18:58:56.029Z,24.90
2022-12-06T19:01:28.208Z,23.73
2022-12-06T19:04:02.090Z,22.50
2022-12-06T19:06:36.276Z,25.10
2022-12-06T19:09:10.094Z,24.67
2022-12-06T19:11:44.559Z,24.13
2022-12-06T19:14:15.914Z,24.77
2022-12-06T19:16:49.392Z,91.13
2022-12-06T19:19:22.528Z,67.80
2022-12-06T19:21:59.513Z,32.50
2022-12-06T19:24:30.483Z,27.07
2022-12-06T19:27:03.532Z,25.57
2022-12-06T19:29:36.527Z,25.07
2022-12-06T19:32:12.054Z,27.40
2022-12-06T19:34:46.012Z,27.37
2022-12-06T19:37:18.161Z,26.23
2022-12-06T19:39:49.271Z,26.23
2022-12-06T19:42:38.943Z,25.43
2022-12-06T19:45:15.723Z,24.57
2022-12-06T19:47:46.982Z,23.23
2022-12-06T19:50:18.593Z,23.70
2022-12-06T19:52:51.194Z,22.70
2022-12-06T19:55:21.929Z,24.50
2022-12-06T19:57:59.598Z,21.53
2022-12-06T20:00:31.182Z,22.53
2022-12-06T20:03:04.897Z,25.73
2022-12-06T20:05:37.305Z,23.63
2022-12-06T20:08:08.721Z,22.40
2022-12-06T20:10:39.688Z,21.70
2022-12-06T20:13:14.593Z,21.27
2022-12-06T20:15:46.955Z,21.17
2022-12-06T20:18:19.434Z,20.43
2022-12-06T20:20:50.551Z,20.90
2022-12-06T20:23:21.453Z,20.17
2022-12-06T20:25:53.014Z,19.70
2022-12-06T20:28:27.334Z,20.73
2022-12-06T20:30:58.647Z,19.73
2022-12-06T20:33:30.436Z,20.70
2022-12-06T20:36:00.514Z,19.60
2022-12-06T20:38:31.301Z,20.30
2022-12-06T20:41:06.986Z,20.13
2022-12-06T20:43:42.828Z,19.33
2022-12-06T20:46:17.619Z,20.07
2022-12-06T20:48:56.334Z,19.00
2022-12-06T20:51:28.352Z,19.13
2022-12-06T20:54:00.970Z,19.63
2022-12-06T20:56:32.829Z,19.33
2022-12-06T20:59:06.376Z,18.70
2022-12-06T21:01:40.961Z,19.03
2022-12-06T21:04:14.333Z,29.43
2022-12-06T21:06:45.625Z,19.23
2022-12-06T21:09:15.104Z,18.03
2022-12-06T21:11:46.595Z,16.57
2022-12-06T21:14:19.826Z,17.10
2022-12-06T21:16:49.048Z,19.30
2022-12-06T21:19:21.734Z,18.53
2022-12-06T21:21:53.560Z,18.10
2022-12-06T21:24:23.549Z,16.43
2022-12-06T21:26:53.663Z,16.33
2022-12-06T21:29:31.005Z,16.00
2022-12-06T21:32:03.097Z,16.27
2022-12-06T21:34:32.325Z,16.10
2022-12-06T21:37:01.344Z,16.20
2022-12-06T21:39:30.526Z,16.70
2022-12-06T21:41:59.674Z,14.93
2022-12-06T21:44:30.225Z,15.67
2022-12-06T21:46:59.368Z,14.97
2022-12-06T21:49:33.005Z,15.60
2022-12-06T21:52:09.263Z,14.67
2022-12-06T21:54:38.580Z,14.60
2022-12-06T21:57:07.783Z,14.27
2022-12-06T21:59:38.350Z,13.97
2022-12-06T22:02:07.797Z,13.67
2022-12-06T22:04:36.889Z,13.23
2022-12-06T22:07:06.077Z,12.70
2022-12-06T22:09:35.547Z,12.47
2022-12-06T22:12:04.828Z,12.97
2022-12-06T22:14:33.840Z,13.50
2022-12-06T22:17:04.517Z,12.43
2022-12-06T22:19:33.744Z,12.60
2022-12-06T22:22:03.038Z,13.13
2022-12-06T22:24:32.383Z,12.90
2022-12-06T22:27:01.502Z,13.73
2022-12-06T22:29:30.755Z,14.33
2022-12-06T22:31:59.968Z,15.40
2022-12-06T22:34:30.649Z,14.37
2022-12-06T22:36:59.805Z,14.80
2022-12-06T22:39:29.271Z,15.13
2022-12-06T22:41:58.341Z,15.37
2022-12-06T22:44:27.427Z,16.97
2022-12-06T22:46:56.480Z,15.53
2022-12-06T22:49:52.408Z,17.13
2022-12-06T22:52:21.669Z,18.07
2022-12-06T22:54:50.875Z,19.30
2022-12-06T22:57:20.120Z,17.90
2022-12-06T22:59:49.250Z,18.30
2022-12-06T23:02:18.386Z,20.77
2022-12-06T23:04:47.522Z,18.43
2022-12-06T23:07:18.060Z,19.37
2022-12-06T23:09:47.073Z,19.17
2022-12-06T23:12:16.126Z,19.60
2022-12-06T23:14:45.192Z,19.53
2022-12-06T23:17:14.390Z,20.47
2022-12-06T23:19:43.337Z,19.27
2022-12-06T23:22:12.293Z,20.07
2022-12-06T23:24:42.840Z,19.97
2022-12-06T23:27:11.920Z,20.67
2022-12-06T23:29:40.964Z,19.67
2022-12-06T23:32:11.051Z,19.37
2022-12-06T23:34:40.489Z,19.33
2022-12-06T23:37:09.457Z,19.73
2022-12-06T23:39:38.553Z,19.47
2022-12-06T23:42:08.945Z,18.43
2022-12-06T23:44:40.247Z,18.83
2022-12-06T23:47:09.247Z,18.10
2022-12-06T23:49:38.395Z,17.57
2022-12-06T23:52:07.348Z,17.17
2022-12-06T23:54:36.340Z,17.57
2022-12-06T23:57:05.353Z,16.77
2022-12-06T23:59:35.903Z,17.67
